General Aviation Weather

Text Reports

Enter one or more of the following location identifiers separated by a space:

Zip Code, Four-Character ICAO or Three-Character IATA airport codes.

METAR - Aviation Routine Weather Report
KIKK - Kankakee, Illinois
Updated at 9:15 AM GMT on September 15, 2014 (4:15 AM CDT):
METAR KIKK 150915Z AUTO 00000KT 10SM SCT120 09/08 A3017 RMK AO2 T00890080
TAF - Terminal Area Forecast
KIKK - Kankakee, Illinois
Updated at 9:15 AM GMT on September 15, 2014 (4:15 AM CDT):
No TAF is currently available for this location.
Decoded:
No decoded TAF is available.
PIREP - Pilot Weather Report
KIKK - Kankakee, Illinois
Updated at 9:15 AM GMT on September 15, 2014 (4:15 AM CDT):
No PIREP is currently available for this location.
AIRMET - Airmens Meteorological Information
KIKK - Kankakee, Illinois
Updated at 9:15 AM GMT on September 15, 2014 (4:15 AM CDT):
No AIRMET is currently available for this location.
SIGMET - Significant Meteorological Information
KIKK - Kankakee, Illinois
Updated at 9:15 AM GMT on September 15, 2014 (4:15 AM CDT):
No SIGMET is currently available for this location.
NOTAM - Notice to Airmen
KIKK - Kankakee, Illinois
Updated at 9:15 AM GMT on September 15, 2014 (4:15 AM CDT):
No NOTAM is currently available for this location.
Forecast Area
KIKK - Kankakee, Illinois
Updated at 9:15 AM GMT on September 15, 2014 (4:15 AM CDT):
No NOTAM is currently available for this location.
Aviation Weather Maps